Argonne, South Dakota
Current Conditions -  °F | °C
As of 8:15 PM on Friday 28 Nov 2014 (Local Time) from KMDS Reporting Station
Clear Clear  
Wind Chill: 17°   Ceiling: Unl
Heat Index: 25°   Visibility: 10mi
Dew Point: 25°   Wind: 7mph
Humidity: 100%   Direction: 110°ESE
Pressure: 29.63"   Gusts: NA
Location:  44.0529°N, 97.5161°W
Report Text: KMDS 290215Z AUTO 11006KT 10SM CLR M04/M04 A2963 RMK AO2
Loading
Personal Weather Stations






























Interactive Weather Map New forecast layout! Learn more

10-Day Weather Forecast

Advertisements
Track Severe Weather on mobile